sensor_id;sensor_type;location;lat;lon;timestamp;P1;durP1;ratioP1;P2;durP2;ratioP2
41233;SDS011;26968;42.686;23.352;2023-03-15T00:01:57;9.50;;;5.60;;
41233;SDS011;26968;42.686;23.352;2023-03-15T00:04:23;12.10;;;5.55;;
41233;SDS011;26968;42.686;23.352;2023-03-15T00:06:50;13.18;;;5.50;;
41233;SDS011;26968;42.686;23.352;2023-03-15T00:09:17;9.07;;;4.78;;
41233;SDS011;26968;42.686;23.352;2023-03-15T00:11:46;12.57;;;5.28;;
41233;SDS011;26968;42.686;23.352;2023-03-15T00:14:13;13.90;;;4.93;;
41233;SDS011;26968;42.686;23.352;2023-03-15T00:16:41;11.93;;;5.13;;
41233;SDS011;26968;42.686;23.352;2023-03-15T00:19:08;13.23;;;5.25;;
41233;SDS011;26968;42.686;23.352;2023-03-15T00:21:37;11.00;;;5.40;;
41233;SDS011;26968;42.686;23.352;2023-03-15T00:24:07;13.02;;;5.55;;
41233;SDS011;26968;42.686;23.352;2023-03-15T00:26:34;12.10;;;5.00;;
41233;SDS011;26968;42.686;23.352;2023-03-15T00:29:00;12.23;;;4.40;;
41233;SDS011;26968;42.686;23.352;2023-03-15T00:31:26;12.90;;;5.22;;
41233;SDS011;26968;42.686;23.352;2023-03-15T00:33:53;10.80;;;4.88;;
41233;SDS011;26968;42.686;23.352;2023-03-15T00:36:20;12.70;;;5.25;;
41233;SDS011;26968;42.686;23.352;2023-03-15T00:38:48;8.60;;;5.00;;
41233;SDS011;26968;42.686;23.352;2023-03-15T00:41:17;11.85;;;4.30;;
41233;SDS011;26968;42.686;23.352;2023-03-15T00:43:44;12.80;;;5.25;;
41233;SDS011;26968;42.686;23.352;2023-03-15T00:46:12;14.80;;;5.35;;
41233;SDS011;26968;42.686;23.352;2023-03-15T00:48:39;9.32;;;4.57;;
41233;SDS011;26968;42.686;23.352;2023-03-15T00:51:07;15.20;;;5.13;;
41233;SDS011;26968;42.686;23.352;2023-03-15T00:53:57;11.05;;;5.05;;
41233;SDS011;26968;42.686;23.352;2023-03-15T00:56:25;7.93;;;4.68;;
41233;SDS011;26968;42.686;23.352;2023-03-15T00:58:54;11.32;;;5.97;;
41233;SDS011;26968;42.686;23.352;2023-03-15T01:01:22;17.73;;;5.32;;
41233;SDS011;26968;42.686;23.352;2023-03-15T01:03:52;14.43;;;5.32;;
41233;SDS011;26968;42.686;23.352;2023-03-15T01:06:19;12.38;;;4.45;;
41233;SDS011;26968;42.686;23.352;2023-03-15T01:08:46;15.82;;;4.93;;
41233;SDS011;26968;42.686;23.352;2023-03-15T01:11:13;13.15;;;5.35;;
41233;SDS011;26968;42.686;23.352;2023-03-15T01:13:40;13.90;;;6.22;;
41233;SDS011;26968;42.686;23.352;2023-03-15T01:16:06;13.20;;;6.63;;
41233;SDS011;26968;42.686;23.352;2023-03-15T01:18:33;15.23;;;6.70;;
41233;SDS011;26968;42.686;23.352;2023-03-15T01:20:59;14.95;;;7.18;;
41233;SDS011;26968;42.686;23.352;2023-03-15T01:23:25;19.58;;;7.28;;
41233;SDS011;26968;42.686;23.352;2023-03-15T01:25:50;18.42;;;7.85;;
41233;SDS011;26968;42.686;23.352;2023-03-15T01:28:16;13.35;;;6.47;;
41233;SDS011;26968;42.686;23.352;2023-03-15T01:30:48;18.13;;;7.18;;
41233;SDS011;26968;42.686;23.352;2023-03-15T01:33:15;16.48;;;6.53;;
41233;SDS011;26968;42.686;23.352;2023-03-15T01:35:40;15.55;;;6.82;;
41233;SDS011;26968;42.686;23.352;2023-03-15T01:38:05;19.25;;;7.55;;
41233;SDS011;26968;42.686;23.352;2023-03-15T01:40:31;15.65;;;6.40;;
41233;SDS011;26968;42.686;23.352;2023-03-15T01:51:19;15.68;;;7.40;;
41233;SDS011;26968;42.686;23.352;2023-03-15T01:56:33;15.95;;;6.57;;
41233;SDS011;26968;42.686;23.352;2023-03-15T01:59:02;21.75;;;7.50;;
41233;SDS011;26968;42.686;23.352;2023-03-15T02:01:32;19.40;;;7.60;;
41233;SDS011;26968;42.686;23.352;2023-03-15T02:04:11;17.52;;;8.68;;
41233;SDS011;26968;42.686;23.352;2023-03-15T02:06:41;20.50;;;7.72;;
41233;SDS011;26968;42.686;23.352;2023-03-15T02:09:10;18.58;;;7.30;;
41233;SDS011;26968;42.686;23.352;2023-03-15T02:11:40;18.63;;;7.78;;
41233;SDS011;26968;42.686;23.352;2023-03-15T02:14:07;12.73;;;6.38;;
41233;SDS011;26968;42.686;23.352;2023-03-15T02:16:36;15.30;;;7.22;;
41233;SDS011;26968;42.686;23.352;2023-03-15T02:19:03;15.05;;;7.47;;
41233;SDS011;26968;42.686;23.352;2023-03-15T02:26:38;14.43;;;6.13;;
41233;SDS011;26968;42.686;23.352;2023-03-15T02:29:07;17.02;;;6.95;;
41233;SDS011;26968;42.686;23.352;2023-03-15T02:31:32;11.57;;;5.70;;
41233;SDS011;26968;42.686;23.352;2023-03-15T02:34:02;13.13;;;5.85;;
41233;SDS011;26968;42.686;23.352;2023-03-15T02:36:29;15.43;;;5.95;;
41233;SDS011;26968;42.686;23.352;2023-03-15T02:38:56;10.60;;;5.57;;
41233;SDS011;26968;42.686;23.352;2023-03-15T02:41:23;11.20;;;5.60;;
41233;SDS011;26968;42.686;23.352;2023-03-15T02:43:54;11.07;;;6.03;;
41233;SDS011;26968;42.686;23.352;2023-03-15T02:46:24;14.65;;;5.97;;
41233;SDS011;26968;42.686;23.352;2023-03-15T02:48:49;12.55;;;5.32;;
41233;SDS011;26968;42.686;23.352;2023-03-15T02:51:18;10.95;;;5.32;;
41233;SDS011;26968;42.686;23.352;2023-03-15T02:53:45;11.23;;;5.38;;
41233;SDS011;26968;42.686;23.352;2023-03-15T02:56:11;14.40;;;5.40;;
41233;SDS011;26968;42.686;23.352;2023-03-15T02:58:38;12.05;;;5.50;;
41233;SDS011;26968;42.686;23.352;2023-03-15T03:01:04;10.55;;;5.53;;
41233;SDS011;26968;42.686;23.352;2023-03-15T03:03:29;11.27;;;5.45;;
41233;SDS011;26968;42.686;23.352;2023-03-15T03:05:55;11.02;;;5.45;;
41233;SDS011;26968;42.686;23.352;2023-03-15T03:08:20;10.45;;;5.40;;
41233;SDS011;26968;42.686;23.352;2023-03-15T03:10:46;11.88;;;4.93;;
41233;SDS011;26968;42.686;23.352;2023-03-15T03:13:11;10.00;;;4.88;;
41233;SDS011;26968;42.686;23.352;2023-03-15T03:15:37;10.20;;;5.60;;
41233;SDS011;26968;42.686;23.352;2023-03-15T03:18:02;7.85;;;5.07;;
41233;SDS011;26968;42.686;23.352;2023-03-15T03:20:28;10.50;;;5.32;;
41233;SDS011;26968;42.686;23.352;2023-03-15T03:22:53;17.42;;;6.15;;
41233;SDS011;26968;42.686;23.352;2023-03-15T03:25:20;11.05;;;5.70;;
41233;SDS011;26968;42.686;23.352;2023-03-15T03:27:45;15.85;;;5.95;;
41233;SDS011;26968;42.686;23.352;2023-03-15T03:30:12;14.73;;;6.30;;
41233;SDS011;26968;42.686;23.352;2023-03-15T03:32:38;23.02;;;5.60;;
41233;SDS011;26968;42.686;23.352;2023-03-15T03:35:05;14.13;;;5.65;;
41233;SDS011;26968;42.686;23.352;2023-03-15T03:37:32;14.68;;;5.68;;
41233;SDS011;26968;42.686;23.352;2023-03-15T03:39:59;13.98;;;5.75;;
41233;SDS011;26968;42.686;23.352;2023-03-15T03:42:25;15.70;;;5.82;;
41233;SDS011;26968;42.686;23.352;2023-03-15T03:44:50;14.48;;;5.82;;
41233;SDS011;26968;42.686;23.352;2023-03-15T03:47:18;19.38;;;6.07;;
41233;SDS011;26968;42.686;23.352;2023-03-15T03:49:44;12.18;;;5.78;;
41233;SDS011;26968;42.686;23.352;2023-03-15T03:52:09;11.35;;;5.85;;
41233;SDS011;26968;42.686;23.352;2023-03-15T03:54:35;11.50;;;6.35;;
41233;SDS011;26968;42.686;23.352;2023-03-15T03:57:00;12.07;;;5.45;;
41233;SDS011;26968;42.686;23.352;2023-03-15T03:59:26;9.98;;;5.07;;
41233;SDS011;26968;42.686;23.352;2023-03-15T04:01:51;10.05;;;5.50;;
41233;SDS011;26968;42.686;23.352;2023-03-15T04:04:16;18.35;;;6.50;;
41233;SDS011;26968;42.686;23.352;2023-03-15T04:06:42;9.55;;;5.68;;
41233;SDS011;26968;42.686;23.352;2023-03-15T04:09:13;10.52;;;5.57;;
41233;SDS011;26968;42.686;23.352;2023-03-15T04:11:42;14.75;;;6.55;;
41233;SDS011;26968;42.686;23.352;2023-03-15T04:14:11;15.50;;;5.53;;
41233;SDS011;26968;42.686;23.352;2023-03-15T04:16:38;13.98;;;6.65;;
41233;SDS011;26968;42.686;23.352;2023-03-15T04:19:04;12.15;;;5.85;;
41233;SDS011;26968;42.686;23.352;2023-03-15T04:21:31;10.43;;;5.95;;
41233;SDS011;26968;42.686;23.352;2023-03-15T04:23:57;12.10;;;6.32;;
41233;SDS011;26968;42.686;23.352;2023-03-15T04:26:24;14.00;;;6.38;;
41233;SDS011;26968;42.686;23.352;2023-03-15T04:28:52;11.88;;;6.30;;
41233;SDS011;26968;42.686;23.352;2023-03-15T04:31:21;12.37;;;5.83;;
41233;SDS011;26968;42.686;23.352;2023-03-15T04:33:52;11.98;;;6.70;;
41233;SDS011;26968;42.686;23.352;2023-03-15T04:36:23;14.98;;;6.82;;
41233;SDS011;26968;42.686;23.352;2023-03-15T04:38:48;12.20;;;6.72;;
41233;SDS011;26968;42.686;23.352;2023-03-15T04:41:14;16.50;;;6.95;;
41233;SDS011;26968;42.686;23.352;2023-03-15T04:43:41;13.68;;;6.57;;
41233;SDS011;26968;42.686;23.352;2023-03-15T04:46:07;16.55;;;8.10;;
41233;SDS011;26968;42.686;23.352;2023-03-15T04:48:33;20.83;;;6.60;;
41233;SDS011;26968;42.686;23.352;2023-03-15T04:50:59;16.15;;;6.55;;
41233;SDS011;26968;42.686;23.352;2023-03-15T04:53:25;18.13;;;7.20;;
41233;SDS011;26968;42.686;23.352;2023-03-15T04:55:50;16.70;;;8.10;;
41233;SDS011;26968;42.686;23.352;2023-03-15T04:58:16;22.80;;;7.43;;
41233;SDS011;26968;42.686;23.352;2023-03-15T05:00:42;18.95;;;7.35;;
41233;SDS011;26968;42.686;23.352;2023-03-15T05:03:07;14.93;;;6.55;;
41233;SDS011;26968;42.686;23.352;2023-03-15T05:05:33;13.23;;;6.72;;
41233;SDS011;26968;42.686;23.352;2023-03-15T05:07:58;13.35;;;7.60;;
41233;SDS011;26968;42.686;23.352;2023-03-15T05:10:24;14.98;;;7.13;;
41233;SDS011;26968;42.686;23.352;2023-03-15T05:12:50;15.70;;;7.45;;
41233;SDS011;26968;42.686;23.352;2023-03-15T05:15:15;18.52;;;6.95;;
41233;SDS011;26968;42.686;23.352;2023-03-15T05:17:41;14.35;;;6.97;;
41233;SDS011;26968;42.686;23.352;2023-03-15T05:20:10;17.88;;;6.78;;
41233;SDS011;26968;42.686;23.352;2023-03-15T05:22:37;18.60;;;7.32;;
41233;SDS011;26968;42.686;23.352;2023-03-15T05:25:05;19.00;;;7.13;;
41233;SDS011;26968;42.686;23.352;2023-03-15T05:27:31;14.45;;;6.38;;
41233;SDS011;26968;42.686;23.352;2023-03-15T05:29:57;13.00;;;6.80;;
41233;SDS011;26968;42.686;23.352;2023-03-15T05:32:23;21.38;;;6.93;;
41233;SDS011;26968;42.686;23.352;2023-03-15T05:34:51;29.50;;;6.90;;
41233;SDS011;26968;42.686;23.352;2023-03-15T05:37:19;14.18;;;6.35;;
41233;SDS011;26968;42.686;23.352;2023-03-15T05:39:46;16.40;;;6.20;;
41233;SDS011;26968;42.686;23.352;2023-03-15T05:42:11;15.10;;;6.30;;
41233;SDS011;26968;42.686;23.352;2023-03-15T05:44:37;18.63;;;6.72;;
41233;SDS011;26968;42.686;23.352;2023-03-15T05:47:02;11.60;;;5.43;;
41233;SDS011;26968;42.686;23.352;2023-03-15T05:49:28;15.13;;;5.18;;
41233;SDS011;26968;42.686;23.352;2023-03-15T05:51:53;13.02;;;4.90;;
41233;SDS011;26968;42.686;23.352;2023-03-15T05:54:19;9.00;;;4.60;;
41233;SDS011;26968;42.686;23.352;2023-03-15T05:56:44;11.52;;;4.97;;
41233;SDS011;26968;42.686;23.352;2023-03-15T05:59:10;15.90;;;5.72;;
41233;SDS011;26968;42.686;23.352;2023-03-15T06:01:35;13.80;;;4.57;;
41233;SDS011;26968;42.686;23.352;2023-03-15T06:04:01;16.40;;;5.53;;
41233;SDS011;26968;42.686;23.352;2023-03-15T06:06:26;11.98;;;4.95;;
41233;SDS011;26968;42.686;23.352;2023-03-15T06:08:51;14.60;;;5.13;;
41233;SDS011;26968;42.686;23.352;2023-03-15T06:11:17;22.75;;;5.63;;
41233;SDS011;26968;42.686;23.352;2023-03-15T06:13:42;17.88;;;6.82;;
41233;SDS011;26968;42.686;23.352;2023-03-15T06:16:08;14.45;;;6.35;;
41233;SDS011;26968;42.686;23.352;2023-03-15T06:18:33;20.83;;;6.90;;
41233;SDS011;26968;42.686;23.352;2023-03-15T06:20:59;25.20;;;6.82;;
41233;SDS011;26968;42.686;23.352;2023-03-15T06:23:24;14.95;;;6.30;;
41233;SDS011;26968;42.686;23.352;2023-03-15T06:25:49;13.38;;;6.50;;
41233;SDS011;26968;42.686;23.352;2023-03-15T06:28:15;16.42;;;6.82;;
41233;SDS011;26968;42.686;23.352;2023-03-15T06:30:40;13.57;;;7.38;;
41233;SDS011;26968;42.686;23.352;2023-03-15T06:33:06;21.10;;;7.35;;
41233;SDS011;26968;42.686;23.352;2023-03-15T06:35:31;17.38;;;7.50;;
41233;SDS011;26968;42.686;23.352;2023-03-15T06:37:57;33.65;;;8.05;;
41233;SDS011;26968;42.686;23.352;2023-03-15T06:40:22;25.50;;;7.78;;
41233;SDS011;26968;42.686;23.352;2023-03-15T06:42:47;26.73;;;7.53;;
41233;SDS011;26968;42.686;23.352;2023-03-15T06:45:13;23.00;;;7.78;;
41233;SDS011;26968;42.686;23.352;2023-03-15T06:47:40;16.17;;;7.75;;
41233;SDS011;26968;42.686;23.352;2023-03-15T06:50:06;15.15;;;6.97;;
41233;SDS011;26968;42.686;23.352;2023-03-15T06:52:32;21.90;;;7.47;;
41233;SDS011;26968;42.686;23.352;2023-03-15T06:54:57;19.88;;;7.03;;
41233;SDS011;26968;42.686;23.352;2023-03-15T06:57:23;17.75;;;6.95;;
41233;SDS011;26968;42.686;23.352;2023-03-15T06:59:48;20.67;;;7.28;;
41233;SDS011;26968;42.686;23.352;2023-03-15T07:02:15;22.70;;;7.43;;
41233;SDS011;26968;42.686;23.352;2023-03-15T07:04:42;28.27;;;8.48;;
41233;SDS011;26968;42.686;23.352;2023-03-15T07:07:12;23.08;;;9.23;;
41233;SDS011;26968;42.686;23.352;2023-03-15T07:09:38;20.33;;;8.48;;
41233;SDS011;26968;42.686;23.352;2023-03-15T07:12:05;27.25;;;9.30;;
41233;SDS011;26968;42.686;23.352;2023-03-15T07:14:32;25.85;;;8.82;;
41233;SDS011;26968;42.686;23.352;2023-03-15T07:16:58;24.30;;;9.07;;
41233;SDS011;26968;42.686;23.352;2023-03-15T07:19:23;20.00;;;7.38;;
41233;SDS011;26968;42.686;23.352;2023-03-15T07:21:48;19.02;;;7.63;;
41233;SDS011;26968;42.686;23.352;2023-03-15T07:24:14;16.65;;;7.57;;
41233;SDS011;26968;42.686;23.352;2023-03-15T07:26:39;17.15;;;8.43;;
41233;SDS011;26968;42.686;23.352;2023-03-15T07:29:04;14.65;;;7.53;;
41233;SDS011;26968;42.686;23.352;2023-03-15T07:31:30;16.75;;;5.95;;
41233;SDS011;26968;42.686;23.352;2023-03-15T07:33:55;12.10;;;5.75;;
41233;SDS011;26968;42.686;23.352;2023-03-15T07:36:21;13.13;;;6.10;;
41233;SDS011;26968;42.686;23.352;2023-03-15T07:38:46;15.73;;;6.20;;
41233;SDS011;26968;42.686;23.352;2023-03-15T07:41:12;20.02;;;6.10;;
41233;SDS011;26968;42.686;23.352;2023-03-15T07:43:37;17.13;;;6.40;;
41233;SDS011;26968;42.686;23.352;2023-03-15T07:46:03;19.52;;;5.80;;
41233;SDS011;26968;42.686;23.352;2023-03-15T07:48:29;13.82;;;4.80;;
41233;SDS011;26968;42.686;23.352;2023-03-15T07:50:55;11.15;;;4.85;;
41233;SDS011;26968;42.686;23.352;2023-03-15T07:53:21;14.10;;;4.55;;
41233;SDS011;26968;42.686;23.352;2023-03-15T07:55:47;7.80;;;4.38;;
41233;SDS011;26968;42.686;23.352;2023-03-15T07:58:13;9.90;;;5.38;;
41233;SDS011;26968;42.686;23.352;2023-03-15T08:00:39;11.73;;;5.88;;
41233;SDS011;26968;42.686;23.352;2023-03-15T08:03:05;14.82;;;5.38;;
41233;SDS011;26968;42.686;23.352;2023-03-15T08:05:31;17.73;;;6.43;;
41233;SDS011;26968;42.686;23.352;2023-03-15T08:07:58;17.08;;;5.80;;
41233;SDS011;26968;42.686;23.352;2023-03-15T08:10:24;17.40;;;5.85;;
41233;SDS011;26968;42.686;23.352;2023-03-15T08:12:49;13.00;;;4.80;;
41233;SDS011;26968;42.686;23.352;2023-03-15T08:15:15;14.55;;;5.53;;
41233;SDS011;26968;42.686;23.352;2023-03-15T08:17:40;10.18;;;5.20;;
41233;SDS011;26968;42.686;23.352;2023-03-15T08:20:07;12.88;;;5.50;;
41233;SDS011;26968;42.686;23.352;2023-03-15T08:22:35;15.88;;;6.47;;
41233;SDS011;26968;42.686;23.352;2023-03-15T08:25:02;15.57;;;5.90;;
41233;SDS011;26968;42.686;23.352;2023-03-15T08:27:28;11.70;;;5.88;;
41233;SDS011;26968;42.686;23.352;2023-03-15T08:29:53;10.82;;;4.95;;
41233;SDS011;26968;42.686;23.352;2023-03-15T08:32:20;13.93;;;5.20;;
41233;SDS011;26968;42.686;23.352;2023-03-15T08:34:46;13.73;;;5.45;;
41233;SDS011;26968;42.686;23.352;2023-03-15T08:37:11;9.52;;;4.88;;
41233;SDS011;26968;42.686;23.352;2023-03-15T08:39:37;13.57;;;5.18;;
41233;SDS011;26968;42.686;23.352;2023-03-15T08:42:03;11.88;;;5.03;;
41233;SDS011;26968;42.686;23.352;2023-03-15T08:44:29;13.77;;;5.45;;
41233;SDS011;26968;42.686;23.352;2023-03-15T08:46:54;14.98;;;5.10;;
41233;SDS011;26968;42.686;23.352;2023-03-15T08:49:20;10.20;;;5.47;;
41233;SDS011;26968;42.686;23.352;2023-03-15T08:51:45;13.90;;;5.10;;
41233;SDS011;26968;42.686;23.352;2023-03-15T08:54:11;16.67;;;5.82;;
41233;SDS011;26968;42.686;23.352;2023-03-15T08:56:38;12.05;;;4.70;;
41233;SDS011;26968;42.686;23.352;2023-03-15T08:59:05;9.93;;;5.40;;
41233;SDS011;26968;42.686;23.352;2023-03-15T09:01:32;14.60;;;4.65;;
41233;SDS011;26968;42.686;23.352;2023-03-15T09:03:58;23.52;;;6.65;;
41233;SDS011;26968;42.686;23.352;2023-03-15T09:06:25;16.25;;;5.45;;
41233;SDS011;26968;42.686;23.352;2023-03-15T09:08:50;11.60;;;5.00;;
41233;SDS011;26968;42.686;23.352;2023-03-15T09:11:17;13.18;;;4.93;;
41233;SDS011;26968;42.686;23.352;2023-03-15T09:13:43;9.93;;;4.45;;
41233;SDS011;26968;42.686;23.352;2023-03-15T09:16:09;9.63;;;4.00;;
41233;SDS011;26968;42.686;23.352;2023-03-15T09:18:34;16.67;;;5.80;;
41233;SDS011;26968;42.686;23.352;2023-03-15T09:21:00;10.43;;;4.47;;
41233;SDS011;26968;42.686;23.352;2023-03-15T09:23:25;11.13;;;4.50;;
41233;SDS011;26968;42.686;23.352;2023-03-15T09:25:51;8.85;;;3.92;;
41233;SDS011;26968;42.686;23.352;2023-03-15T09:28:16;9.57;;;3.58;;
41233;SDS011;26968;42.686;23.352;2023-03-15T09:30:42;15.50;;;5.88;;
41233;SDS011;26968;42.686;23.352;2023-03-15T09:33:08;13.35;;;5.55;;
41233;SDS011;26968;42.686;23.352;2023-03-15T09:35:34;12.70;;;5.95;;
41233;SDS011;26968;42.686;23.352;2023-03-15T09:37:59;12.00;;;4.63;;
41233;SDS011;26968;42.686;23.352;2023-03-15T09:40:26;12.90;;;5.50;;
41233;SDS011;26968;42.686;23.352;2023-03-15T09:48:25;19.60;;;8.30;;
41233;SDS011;26968;42.686;23.352;2023-03-15T09:51:17;13.13;;;6.13;;
41233;SDS011;26968;42.686;23.352;2023-03-15T09:53:55;20.80;;;7.25;;
41233;SDS011;26968;42.686;23.352;2023-03-15T09:56:26;15.57;;;6.03;;
41233;SDS011;26968;42.686;23.352;2023-03-15T09:58:57;17.17;;;6.07;;
41233;SDS011;26968;42.686;23.352;2023-03-15T10:01:35;14.50;;;4.72;;
41233;SDS011;26968;42.686;23.352;2023-03-15T10:07:05;17.05;;;5.57;;
41233;SDS011;26968;42.686;23.352;2023-03-15T10:09:35;9.63;;;4.95;;
41233;SDS011;26968;42.686;23.352;2023-03-15T10:17:23;9.48;;;4.53;;
41233;SDS011;26968;42.686;23.352;2023-03-15T10:20:10;9.23;;;5.03;;
41233;SDS011;26968;42.686;23.352;2023-03-15T10:27:46;12.40;;;4.90;;
41233;SDS011;26968;42.686;23.352;2023-03-15T10:30:21;8.23;;;4.57;;
41233;SDS011;26968;42.686;23.352;2023-03-15T10:32:58;8.82;;;4.82;;
41233;SDS011;26968;42.686;23.352;2023-03-15T10:35:27;13.80;;;4.57;;
41233;SDS011;26968;42.686;23.352;2023-03-15T10:37:52;10.35;;;4.45;;
41233;SDS011;26968;42.686;23.352;2023-03-15T10:48:25;11.07;;;5.32;;
41233;SDS011;26968;42.686;23.352;2023-03-15T10:51:22;16.00;;;5.95;;
41233;SDS011;26968;42.686;23.352;2023-03-15T10:53:52;13.48;;;4.75;;
41233;SDS011;26968;42.686;23.352;2023-03-15T10:56:22;10.75;;;5.00;;
41233;SDS011;26968;42.686;23.352;2023-03-15T10:58:51;17.17;;;5.57;;
41233;SDS011;26968;42.686;23.352;2023-03-15T11:01:36;21.95;;;6.20;;
41233;SDS011;26968;42.686;23.352;2023-03-15T11:09:12;15.15;;;5.18;;
41233;SDS011;26968;42.686;23.352;2023-03-15T11:11:53;10.45;;;5.07;;
41233;SDS011;26968;42.686;23.352;2023-03-15T11:14:19;12.68;;;4.43;;
41233;SDS011;26968;42.686;23.352;2023-03-15T11:16:47;13.18;;;4.28;;
41233;SDS011;26968;42.686;23.352;2023-03-15T11:19:19;13.55;;;4.85;;
41233;SDS011;26968;42.686;23.352;2023-03-15T11:21:47;16.77;;;5.07;;
41233;SDS011;26968;42.686;23.352;2023-03-15T11:24:20;11.27;;;4.45;;
41233;SDS011;26968;42.686;23.352;2023-03-15T11:26:51;8.15;;;4.45;;
41233;SDS011;26968;42.686;23.352;2023-03-15T11:31:55;12.15;;;4.68;;
41233;SDS011;26968;42.686;23.352;2023-03-15T11:34:25;13.07;;;4.55;;
41233;SDS011;26968;42.686;23.352;2023-03-15T11:37:02;8.95;;;4.25;;
41233;SDS011;26968;42.686;23.352;2023-03-15T11:39:52;11.50;;;4.72;;
41233;SDS011;26968;42.686;23.352;2023-03-15T11:42:27;13.10;;;4.15;;
41233;SDS011;26968;42.686;23.352;2023-03-15T11:44:58;10.82;;;4.97;;
41233;SDS011;26968;42.686;23.352;2023-03-15T11:47:42;16.60;;;4.90;;
41233;SDS011;26968;42.686;23.352;2023-03-15T11:50:16;12.07;;;5.20;;
41233;SDS011;26968;42.686;23.352;2023-03-15T11:52:41;9.02;;;5.15;;
41233;SDS011;26968;42.686;23.352;2023-03-15T11:55:15;10.57;;;5.55;;
41233;SDS011;26968;42.686;23.352;2023-03-15T11:57:44;15.43;;;5.82;;
41233;SDS011;26968;42.686;23.352;2023-03-15T12:00:54;13.60;;;5.57;;
41233;SDS011;26968;42.686;23.352;2023-03-15T12:10:59;11.82;;;5.28;;
41233;SDS011;26968;42.686;23.352;2023-03-15T12:13:26;13.07;;;4.80;;
41233;SDS011;26968;42.686;23.352;2023-03-15T12:15:54;17.80;;;6.82;;
41233;SDS011;26968;42.686;23.352;2023-03-15T12:18:20;15.95;;;6.20;;
41233;SDS011;26968;42.686;23.352;2023-03-15T12:20:51;13.80;;;6.10;;
41233;SDS011;26968;42.686;23.352;2023-03-15T12:23:35;14.18;;;5.80;;
41233;SDS011;26968;42.686;23.352;2023-03-15T12:34:44;22.63;;;7.43;;
41233;SDS011;26968;42.686;23.352;2023-03-15T12:37:26;25.13;;;7.18;;
41233;SDS011;26968;42.686;23.352;2023-03-15T12:55:56;19.42;;;7.07;;
41233;SDS011;26968;42.686;23.352;2023-03-15T12:58:26;19.88;;;6.80;;
41233;SDS011;26968;42.686;23.352;2023-03-15T13:01:01;16.02;;;6.47;;
41233;SDS011;26968;42.686;23.352;2023-03-15T13:03:32;11.85;;;6.32;;
41233;SDS011;26968;42.686;23.352;2023-03-15T13:06:03;19.70;;;7.00;;
41233;SDS011;26968;42.686;23.352;2023-03-15T13:08:43;23.00;;;7.45;;
41233;SDS011;26968;42.686;23.352;2023-03-15T13:11:42;22.40;;;8.52;;
41233;SDS011;26968;42.686;23.352;2023-03-15T13:22:28;20.00;;;6.47;;
41233;SDS011;26968;42.686;23.352;2023-03-15T13:30:38;20.23;;;5.82;;
41233;SDS011;26968;42.686;23.352;2023-03-15T13:33:27;15.68;;;6.43;;
41233;SDS011;26968;42.686;23.352;2023-03-15T13:40:59;13.63;;;5.93;;
41233;SDS011;26968;42.686;23.352;2023-03-15T13:43:31;14.80;;;6.57;;
41233;SDS011;26968;42.686;23.352;2023-03-15T13:46:00;12.05;;;6.53;;
41233;SDS011;26968;42.686;23.352;2023-03-15T13:48:27;20.17;;;6.93;;
41233;SDS011;26968;42.686;23.352;2023-03-15T13:50:55;11.82;;;5.85;;
41233;SDS011;26968;42.686;23.352;2023-03-15T13:53:48;23.60;;;7.72;;
41233;SDS011;26968;42.686;23.352;2023-03-15T13:56:17;17.83;;;7.72;;
41233;SDS011;26968;42.686;23.352;2023-03-15T13:58:45;19.92;;;7.03;;
41233;SDS011;26968;42.686;23.352;2023-03-15T14:01:12;16.23;;;6.45;;
41233;SDS011;26968;42.686;23.352;2023-03-15T14:03:40;16.73;;;6.43;;
41233;SDS011;26968;42.686;23.352;2023-03-15T14:06:10;17.83;;;6.47;;
41233;SDS011;26968;42.686;23.352;2023-03-15T14:08:37;17.13;;;6.55;;
41233;SDS011;26968;42.686;23.352;2023-03-15T14:18:40;13.65;;;5.30;;
41233;SDS011;26968;42.686;23.352;2023-03-15T14:23:41;21.02;;;4.80;;
41233;SDS011;26968;42.686;23.352;2023-03-15T14:26:11;14.25;;;5.72;;
41233;SDS011;26968;42.686;23.352;2023-03-15T14:28:50;12.68;;;5.65;;
41233;SDS011;26968;42.686;23.352;2023-03-15T14:31:24;19.02;;;5.53;;
41233;SDS011;26968;42.686;23.352;2023-03-15T14:33:55;22.88;;;5.63;;
41233;SDS011;26968;42.686;23.352;2023-03-15T14:36:31;17.30;;;5.32;;
41233;SDS011;26968;42.686;23.352;2023-03-15T14:38:59;13.07;;;5.32;;
41233;SDS011;26968;42.686;23.352;2023-03-15T14:43:55;9.77;;;5.03;;
41233;SDS011;26968;42.686;23.352;2023-03-15T14:46:21;21.02;;;6.20;;
41233;SDS011;26968;42.686;23.352;2023-03-15T14:48:48;17.30;;;5.93;;
41233;SDS011;26968;42.686;23.352;2023-03-15T14:51:15;15.20;;;5.45;;
41233;SDS011;26968;42.686;23.352;2023-03-15T14:53:43;10.07;;;5.00;;
41233;SDS011;26968;42.686;23.352;2023-03-15T14:56:10;19.48;;;5.38;;
41233;SDS011;26968;42.686;23.352;2023-03-15T14:58:37;18.63;;;5.55;;
41233;SDS011;26968;42.686;23.352;2023-03-15T15:01:03;17.48;;;5.45;;
41233;SDS011;26968;42.686;23.352;2023-03-15T15:04:12;14.70;;;5.70;;
41233;SDS011;26968;42.686;23.352;2023-03-15T15:06:22;19.35;;;6.40;;
41233;SDS011;26968;42.686;23.352;2023-03-15T15:08:48;15.07;;;5.40;;
41233;SDS011;26968;42.686;23.352;2023-03-15T15:11:19;21.30;;;5.95;;
41233;SDS011;26968;42.686;23.352;2023-03-15T15:13:44;20.27;;;6.72;;
41233;SDS011;26968;42.686;23.352;2023-03-15T15:16:10;21.58;;;5.80;;
41233;SDS011;26968;42.686;23.352;2023-03-15T15:18:36;20.42;;;7.05;;
41233;SDS011;26968;42.686;23.352;2023-03-15T15:21:05;19.73;;;6.88;;
41233;SDS011;26968;42.686;23.352;2023-03-15T15:23:37;18.23;;;5.97;;
41233;SDS011;26968;42.686;23.352;2023-03-15T15:26:05;13.35;;;6.20;;
41233;SDS011;26968;42.686;23.352;2023-03-15T15:28:36;16.02;;;6.45;;
41233;SDS011;26968;42.686;23.352;2023-03-15T15:31:01;12.13;;;6.03;;
41233;SDS011;26968;42.686;23.352;2023-03-15T15:33:28;23.65;;;5.97;;
41233;SDS011;26968;42.686;23.352;2023-03-15T15:35:54;13.68;;;6.43;;
41233;SDS011;26968;42.686;23.352;2023-03-15T15:38:27;16.25;;;5.95;;
41233;SDS011;26968;42.686;23.352;2023-03-15T15:40:57;15.15;;;7.15;;
41233;SDS011;26968;42.686;23.352;2023-03-15T15:43:23;13.63;;;5.72;;
41233;SDS011;26968;42.686;23.352;2023-03-15T15:45:48;19.15;;;6.07;;
41233;SDS011;26968;42.686;23.352;2023-03-15T15:48:14;19.23;;;6.07;;
41233;SDS011;26968;42.686;23.352;2023-03-15T15:50:42;13.95;;;5.97;;
41233;SDS011;26968;42.686;23.352;2023-03-15T15:53:09;22.63;;;6.78;;
41233;SDS011;26968;42.686;23.352;2023-03-15T15:55:40;20.65;;;6.35;;
41233;SDS011;26968;42.686;23.352;2023-03-15T15:58:05;12.68;;;6.60;;
41233;SDS011;26968;42.686;23.352;2023-03-15T16:00:32;11.25;;;5.93;;
41233;SDS011;26968;42.686;23.352;2023-03-15T16:02:57;26.52;;;6.93;;
41233;SDS011;26968;42.686;23.352;2023-03-15T16:05:24;23.88;;;8.00;;
41233;SDS011;26968;42.686;23.352;2023-03-15T16:07:53;19.45;;;7.55;;
41233;SDS011;26968;42.686;23.352;2023-03-15T16:10:21;15.65;;;6.57;;
41233;SDS011;26968;42.686;23.352;2023-03-15T16:12:50;20.67;;;6.68;;
41233;SDS011;26968;42.686;23.352;2023-03-15T16:15:17;22.17;;;7.35;;
41233;SDS011;26968;42.686;23.352;2023-03-15T16:17:43;11.43;;;5.68;;
41233;SDS011;26968;42.686;23.352;2023-03-15T16:20:10;14.65;;;6.40;;
41233;SDS011;26968;42.686;23.352;2023-03-15T16:22:36;17.02;;;6.93;;
41233;SDS011;26968;42.686;23.352;2023-03-15T16:25:07;16.85;;;5.90;;